Time;durP1;ratioP1;P1;durP2;ratioP2;P2;SDS_P1;SDS_P2;PMS_P1;PMS_P2;Temp;Humidity;BMP_temperature;BMP_pressure;BME280_temperature;BME280_humidity;BME280_pressure;Samples;Min_cycle;Max_cycle;Signal;HPM_P1;HPM_P2
2022/03/14 00:00:26;;;;;;;7.28;4.65;;;;;;;-6.08;85.72;96208.19;5112581;27;20096;-47
2022/03/14 00:02:54;;;;;;;17.50;5.03;;;;;;;-6.18;86.08;96196.06;5108804;27;20051;-46
2022/03/14 00:05:21;;;;;;;10.45;5.10;;;;;;;-6.11;85.91;96211.72;5108327;27;20051;-50
2022/03/14 00:07:48;;;;;;;11.05;5.60;;;;;;;-6.09;85.76;96214.97;5107848;27;20048;-46
2022/03/14 00:10:16;;;;;;;6.47;3.83;;;;;;;-6.08;85.80;96206.47;5107323;27;20071;-47
2022/03/14 00:12:45;;;;;;;13.15;5.47;;;;;;;-6.06;85.26;96209.72;5107144;27;20043;-46
2022/03/14 00:15:13;;;;;;;13.40;5.65;;;;;;;-6.05;84.77;96206.28;5113716;27;20077;-48
2022/03/14 00:17:47;;;;;;;9.10;4.30;;;;;;;-6.02;84.90;96208.63;5107013;27;20047;-47
2022/03/14 00:20:15;;;;;;;13.45;6.00;;;;;;;-6.02;84.80;96216.22;5107630;27;20050;-46
2022/03/14 00:22:45;;;;;;;11.70;5.15;;;;;;;-5.96;84.54;96215.88;5107285;27;20040;-46
2022/03/14 00:25:12;;;;;;;9.30;4.57;;;;;;;-5.94;84.10;96218.28;5109199;27;20103;-45
2022/03/14 00:27:39;;;;;;;16.25;4.90;;;;;;;-5.90;83.79;96221.44;5108260;27;20096;-46
2022/03/14 00:30:11;;;;;;;8.68;4.43;;;;;;;-5.86;82.70;96220.34;5107111;27;20052;-48
2022/03/14 00:32:39;;;;;;;8.55;5.13;;;;;;;-5.91;82.20;96222.34;5109505;27;20489;-46
2022/03/14 00:35:07;;;;;;;12.98;4.85;;;;;;;-5.95;81.92;96227.59;5108786;27;20051;-46
2022/03/14 00:37:35;;;;;;;5.78;3.20;;;;;;;-6.10;82.28;96212.53;5110377;27;20508;-46
2022/03/14 00:40:04;;;;;;;8.05;4.28;;;;;;;-6.04;82.93;96227.38;5106792;27;20100;-46
2022/03/14 00:42:31;;;;;;;7.75;4.22;;;;;;;-6.00;83.14;96229.63;5109636;27;20075;-47
2022/03/14 00:45:01;;;;;;;8.07;3.88;;;;;;;-5.99;83.34;96226.19;5110527;27;20128;-46
2022/03/14 00:47:28;;;;;;;7.78;4.35;;;;;;;-6.06;83.57;96222.41;5108040;27;20050;-46
2022/03/14 00:49:55;;;;;;;31.58;10.95;;;;;;;-6.09;83.74;96225.13;5111162;27;20043;-46
2022/03/14 00:52:22;;;;;;;25.83;11.95;;;;;;;-6.12;83.92;96230.41;5107491;28;20096;-50
2022/03/14 00:54:49;;;;;;;35.67;16.88;;;;;;;-6.17;84.34;96217.19;5109644;27;20046;-46
2022/03/14 00:57:16;;;;;;;22.08;10.35;;;;;;;-6.11;84.54;96226.13;5107685;27;20086;-46
2022/03/14 00:59:43;;;;;;;14.13;7.50;;;;;;;-6.26;84.78;96202.53;5108713;27;20043;-46
2022/03/14 01:02:10;;;;;;;12.50;5.93;;;;;;;-6.20;85.07;96219.91;5112646;27;20092;-46
2022/03/14 01:04:37;;;;;;;12.07;6.47;;;;;;;-6.17;85.80;96217.19;5107383;28;20116;-46
2022/03/14 01:07:04;;;;;;;37.38;15.75;;;;;;;-6.13;85.82;96216.06;5107216;27;20039;-46
2022/03/14 01:09:32;;;;;;;26.75;11.77;;;;;;;-6.12;85.21;96220.25;5107504;28;20039;-46
2022/03/14 01:11:59;;;;;;;14.50;8.20;;;;;;;-6.14;85.05;96219.50;5107399;28;20047;-48
2022/03/14 01:14:26;;;;;;;15.90;7.82;;;;;;;-6.21;85.63;96216.56;5112132;28;20047;-46
2022/03/14 01:16:54;;;;;;;13.20;7.65;;;;;;;-6.07;86.03;96230.91;5112169;28;20063;-46
2022/03/14 01:19:21;;;;;;;11.25;6.93;;;;;;;-6.11;85.91;96226.94;5106583;28;20109;-46
2022/03/14 01:21:49;;;;;;;18.88;6.57;;;;;;;-6.08;86.02;96241.19;5106550;28;20493;-46
2022/03/14 01:24:16;;;;;;;15.57;6.30;;;;;;;-6.06;86.07;96245.22;5107609;28;20031;-47
2022/03/14 01:26:42;;;;;;;22.35;10.27;;;;;;;-6.09;86.28;96245.41;5105548;28;20048;-46
2022/03/14 01:29:10;;;;;;;26.05;10.98;;;;;;;-6.09;85.88;96240.34;5113941;28;21582;-47
2022/03/14 01:31:38;;;;;;;25.13;9.95;;;;;;;-6.21;86.39;96249.53;5106612;28;21779;-46
2022/03/14 01:34:05;;;;;;;65.30;21.42;;;;;;;-6.33;87.28;96247.72;5104973;28;20044;-46
2022/03/14 01:36:32;;;;;;;70.20;20.38;;;;;;;-6.18;86.35;96258.66;5105456;28;20047;-46
2022/03/14 01:39:00;;;;;;;37.95;12.05;;;;;;;-6.20;86.21;96252.88;5111703;28;20051;-47
2022/03/14 01:41:28;;;;;;;45.05;15.07;;;;;;;-6.29;86.71;96253.44;5106887;28;20535;-47
2022/03/14 01:43:56;;;;;;;18.52;10.93;;;;;;;-6.40;87.70;96242.19;5106193;28;20105;-46
2022/03/14 01:46:23;;;;;;;20.23;9.85;;;;;;;-6.40;88.34;96241.38;5109685;28;20054;-47
2022/03/14 01:48:51;;;;;;;22.77;11.20;;;;;;;-6.25;88.61;96255.66;5105550;28;20447;-47
2022/03/14 01:51:24;;;;;;;23.38;11.38;;;;;;;-6.34;87.23;96253.69;5106769;28;20039;-46
2022/03/14 01:53:52;;;;;;;17.02;8.80;;;;;;;-6.46;86.61;96246.81;5106079;28;20421;-46
2022/03/14 01:56:19;;;;;;;23.33;11.77;;;;;;;-6.61;86.52;96258.69;5106355;28;20043;-46
2022/03/14 01:58:46;;;;;;;21.90;9.00;;;;;;;-6.57;86.70;96275.34;5106343;28;20036;-46
2022/03/14 02:01:13;;;;;;;23.65;8.60;;;;;;;-6.69;86.79;96271.81;5115138;28;20516;-49
2022/03/14 02:03:42;;;;;;;20.92;7.32;;;;;;;-6.77;86.51;96284.94;5111497;28;20051;-47
2022/03/14 02:06:10;;;;;;;20.05;9.32;;;;;;;-6.94;87.38;96296.00;5108465;28;20424;-46
2022/03/14 02:08:37;;;;;;;16.85;7.57;;;;;;;-7.02;87.46;96285.50;5109862;28;20136;-46
2022/03/14 02:11:04;;;;;;;22.77;9.25;;;;;;;-7.07;87.35;96284.16;5107701;28;20048;-47
2022/03/14 02:13:31;;;;;;;22.52;8.77;;;;;;;-7.16;88.35;96288.81;5112540;28;20059;-46
2022/03/14 02:15:58;;;;;;;14.13;7.65;;;;;;;-7.15;88.43;96290.47;5108233;28;20045;-46
2022/03/14 02:18:25;;;;;;;15.25;6.95;;;;;;;-7.18;88.36;96294.88;5107154;27;20035;-47
2022/03/14 02:20:52;;;;;;;15.98;6.82;;;;;;;-7.20;88.70;96302.56;5109674;27;20073;-47
2022/03/14 02:23:19;;;;;;;18.73;7.25;;;;;;;-7.26;89.24;96295.28;5109412;27;20128;-47
2022/03/14 02:25:50;;;;;;;17.17;8.85;;;;;;;-7.47;89.74;96291.41;5110162;27;20109;-46
2022/03/14 02:28:22;;;;;;;15.57;8.65;;;;;;;-7.44;90.61;96302.16;5109350;27;20101;-49
2022/03/14 02:30:50;;;;;;;9.45;5.30;;;;;;;-7.48;90.81;96310.03;5114560;27;20058;-47
2022/03/14 02:33:18;;;;;;;12.50;6.10;;;;;;;-7.53;90.84;96303.50;5115223;27;20123;-47
2022/03/14 02:35:45;;;;;;;9.48;6.28;;;;;;;-7.58;91.65;96308.00;5110172;27;20039;-48
2022/03/14 02:38:14;;;;;;;10.60;6.03;;;;;;;-7.64;91.46;96297.38;5114725;27;20039;-46
2022/03/14 02:40:46;;;;;;;16.23;6.78;;;;;;;-7.62;91.56;96311.56;5114070;27;20761;-47
2022/03/14 02:43:22;;;;;;;15.88;7.03;;;;;;;-7.74;92.05;96297.06;5109451;27;20054;-48
2022/03/14 02:45:51;;;;;;;12.13;6.32;;;;;;;-7.63;92.22;96315.03;5106883;27;20054;-46
2022/03/14 02:48:23;;;;;;;18.95;6.38;;;;;;;-7.67;92.39;96316.06;5110422;27;20046;-47
2022/03/14 02:50:53;;;;;;;18.15;7.75;;;;;;;-7.68;92.31;96320.31;5115784;27;20050;-48
2022/03/14 02:53:21;;;;;;;9.23;5.75;;;;;;;-7.68;92.80;96325.38;5108179;27;20041;-46
2022/03/14 02:55:48;;;;;;;10.95;6.60;;;;;;;-7.70;92.84;96323.84;5110576;27;20119;-47
2022/03/14 02:58:15;;;;;;;10.48;6.10;;;;;;;-7.77;93.02;96327.59;5108517;27;20074;-47
2022/03/14 03:00:42;;;;;;;15.35;5.32;;;;;;;-7.74;93.54;96332.47;5109030;27;20043;-46
2022/03/14 03:03:13;;;;;;;15.38;6.55;;;;;;;-7.70;93.53;96326.38;5109145;27;20071;-48
2022/03/14 03:05:43;;;;;;;11.90;6.85;;;;;;;-7.76;93.71;96339.34;5108639;27;20696;-49
2022/03/14 03:08:14;;;;;;;13.10;7.93;;;;;;;-7.69;93.78;96336.41;5108599;27;20051;-47
2022/03/14 03:10:42;;;;;;;15.70;8.55;;;;;;;-7.67;93.92;96333.78;5107725;27;20101;-46
2022/03/14 03:13:10;;;;;;;15.68;6.47;;;;;;;-7.66;94.14;96330.38;5114850;27;20057;-48
2022/03/14 03:15:37;;;;;;;14.82;5.80;;;;;;;-7.65;94.42;96334.53;5108574;27;20044;-47
2022/03/14 03:18:05;;;;;;;32.70;11.93;;;;;;;-7.62;94.19;96347.00;5108517;27;20120;-46
2022/03/14 03:20:32;;;;;;;29.27;12.98;;;;;;;-7.70;93.94;96328.91;5109217;27;20044;-46
2022/03/14 03:22:59;;;;;;;16.30;6.03;;;;;;;-7.63;93.66;96339.50;5114223;27;20043;-47
2022/03/14 03:25:25;;;;;;;10.35;6.70;;;;;;;-7.65;93.20;96337.06;5109438;27;20546;-50
2022/03/14 03:27:52;;;;;;;8.32;5.45;;;;;;;-7.60;93.68;96345.22;5112058;27;20059;-47
2022/03/14 03:30:22;;;;;;;10.27;5.38;;;;;;;-7.57;93.52;96344.25;5105892;27;20036;-46
2022/03/14 03:32:50;;;;;;;10.20;5.75;;;;;;;-7.60;93.44;96340.16;5113033;27;20141;-46
2022/03/14 03:35:18;;;;;;;11.90;6.70;;;;;;;-7.64;93.37;96348.81;5109857;27;20043;-45
2022/03/14 03:37:44;;;;;;;10.18;5.80;;;;;;;-7.61;93.30;96353.72;5111597;27;20058;-47
2022/03/14 03:40:12;;;;;;;12.82;6.25;;;;;;;-7.66;92.57;96340.47;5108883;27;20032;-46
2022/03/14 03:42:38;;;;;;;9.88;6.72;;;;;;;-7.68;92.95;96347.34;5111135;27;20043;-48
2022/03/14 03:45:06;;;;;;;12.90;5.70;;;;;;;-7.69;92.43;96360.88;5108798;27;20088;-46
2022/03/14 03:47:33;;;;;;;10.10;4.60;;;;;;;-7.73;92.71;96359.41;5106995;27;20502;-46
2022/03/14 03:50:00;;;;;;;13.00;5.88;;;;;;;-7.70;93.18;96365.13;5109489;27;20403;-46
2022/03/14 03:52:26;;;;;;;14.90;5.38;;;;;;;-7.70;92.86;96366.84;5108417;27;20044;-47
2022/03/14 03:54:53;;;;;;;12.15;6.90;;;;;;;-7.72;93.11;96376.25;5108356;27;20554;-49
2022/03/14 03:57:20;;;;;;;14.30;6.85;;;;;;;-7.70;92.81;96384.56;5108589;27;20123;-47
2022/03/14 03:59:47;;;;;;;15.15;6.47;;;;;;;-7.76;93.25;96377.28;5108363;27;20457;-47
2022/03/14 04:02:16;;;;;;;12.77;5.78;;;;;;;-7.84;93.10;96376.88;5108492;27;20051;-46
2022/03/14 04:04:43;;;;;;;12.23;6.97;;;;;;;-7.79;93.22;96380.00;5110951;27;20041;-47
2022/03/14 04:07:10;;;;;;;12.98;6.78;;;;;;;-7.84;93.48;96392.06;5108093;27;20589;-46
2022/03/14 04:09:36;;;;;;;12.77;5.88;;;;;;;-7.94;93.97;96402.66;5108525;27;20050;-46
2022/03/14 04:12:03;;;;;;;17.70;6.65;;;;;;;-7.98;94.45;96402.88;5108403;27;20508;-46
2022/03/14 04:14:30;;;;;;;11.10;7.18;;;;;;;-8.01;94.64;96401.31;5109304;27;20420;-47
2022/03/14 04:17:01;;;;;;;14.15;7.57;;;;;;;-8.03;95.14;96403.13;5107005;27;20081;-48
2022/03/14 04:19:32;;;;;;;16.48;7.82;;;;;;;-8.02;95.15;96409.78;5108813;27;20084;-46
2022/03/14 04:21:58;;;;;;;23.23;10.18;;;;;;;-8.05;93.80;96399.81;5114263;27;20066;-46
2022/03/14 04:24:25;;;;;;;19.98;9.43;;;;;;;-8.11;93.64;96415.31;5106821;27;20050;-46
2022/03/14 04:26:52;;;;;;;18.13;9.27;;;;;;;-8.18;93.48;96419.06;5108737;27;20047;-46
2022/03/14 04:29:20;;;;;;;43.55;15.55;;;;;;;-8.30;94.02;96416.25;5108511;27;20082;-47
2022/03/14 04:31:46;;;;;;;34.05;13.45;;;;;;;-8.30;94.78;96415.41;5111192;27;20047;-46
2022/03/14 04:34:13;;;;;;;20.17;9.57;;;;;;;-8.30;94.84;96421.31;5106480;27;20124;-47
2022/03/14 04:36:40;;;;;;;16.80;7.97;;;;;;;-8.43;95.10;96402.59;5104919;27;20056;-46
2022/03/14 04:39:07;;;;;;;12.55;6.85;;;;;;;-8.40;95.26;96407.47;5110265;27;20028;-48
2022/03/14 04:41:35;;;;;;;15.23;6.40;;;;;;;-8.31;95.81;96422.19;5105121;27;20044;-46
2022/03/14 04:44:02;;;;;;;8.30;4.90;;;;;;;-8.26;95.80;96432.09;5105996;27;20047;-47
2022/03/14 04:46:29;;;;;;;12.77;5.88;;;;;;;-8.27;95.87;96435.50;5104933;27;20051;-46
2022/03/14 04:48:56;;;;;;;11.57;6.63;;;;;;;-8.24;96.01;96429.47;5107436;27;20047;-47
2022/03/14 04:51:23;;;;;;;9.52;5.22;;;;;;;-8.22;95.99;96435.28;5108321;27;20035;-48
2022/03/14 04:53:49;;;;;;;18.77;6.93;;;;;;;-8.20;96.01;96441.06;5101270;27;20039;-46
2022/03/14 04:56:16;;;;;;;10.80;6.88;;;;;;;-8.17;96.59;96443.44;5097992;27;20055;-46
2022/03/14 04:58:43;;;;;;;23.08;12.20;;;;;;;-8.19;96.84;96437.63;5101240;27;20051;-46
2022/03/14 05:01:10;;;;;;;61.17;27.90;;;;;;;-8.12;97.12;96444.00;5103344;28;20039;-46
2022/03/14 05:03:37;;;;;;;23.80;12.25;;;;;;;-8.03;97.12;96453.69;5100306;27;20043;-46
2022/03/14 05:06:04;;;;;;;19.58;10.40;;;;;;;-7.99;97.21;96465.28;5111576;27;20047;-47
2022/03/14 05:08:30;;;;;;;17.35;10.75;;;;;;;-7.93;97.06;96464.97;5106364;27;20044;-50
2022/03/14 05:10:58;;;;;;;12.13;7.88;;;;;;;-7.83;97.45;96467.88;5113420;27;20043;-46
2022/03/14 05:13:25;;;;;;;18.02;11.52;;;;;;;-7.79;97.21;96476.13;5115818;27;20470;-48
2022/03/14 05:15:52;;;;;;;25.02;12.60;;;;;;;-7.75;97.40;96467.47;5104691;28;20104;-47
2022/03/14 05:18:19;;;;;;;9.85;5.25;;;;;;;-7.66;96.88;96477.13;5108336;28;20543;-50
2022/03/14 05:20:45;;;;;;;17.15;7.63;;;;;;;-7.57;96.49;96479.16;5109679;28;20047;-47
2022/03/14 05:23:13;;;;;;;10.05;6.85;;;;;;;-7.47;96.10;96482.06;5101232;28;20129;-47
2022/03/14 05:25:39;;;;;;;11.77;6.15;;;;;;;-7.40;95.93;96487.59;5098464;28;20035;-46
2022/03/14 05:28:06;;;;;;;25.33;11.40;;;;;;;-7.28;95.45;96486.16;5100934;27;20066;-47
2022/03/14 05:30:33;;;;;;;26.85;13.82;;;;;;;-7.19;95.58;96480.59;5083751;28;20040;-50
2022/03/14 05:33:00;;;;;;;25.92;14.77;;;;;;;-7.05;95.19;96492.56;5100380;28;20114;-48
2022/03/14 05:35:28;;;;;;;36.58;16.27;;;;;;;-6.97;94.89;96495.47;5072110;28;20125;-47
2022/03/14 05:37:55;;;;;;;44.88;25.45;;;;;;;-6.88;95.45;96499.25;5100623;28;20042;-49
2022/03/14 05:40:22;;;;;;;42.65;23.17;;;;;;;-6.71;95.45;96495.81;5108288;27;20550;-47
2022/03/14 05:42:49;;;;;;;45.75;24.40;;;;;;;-6.68;95.70;96485.47;5109827;28;20124;-47
2022/03/14 05:45:18;;;;;;;43.95;22.73;;;;;;;-6.51;95.53;96497.25;5104355;28;20063;-46
2022/03/14 05:47:46;;;;;;;46.83;23.17;;;;;;;-6.29;94.59;96501.94;5102306;28;20050;-46
2022/03/14 05:50:13;;;;;;;51.25;22.98;;;;;;;-6.07;93.87;96509.94;5114866;27;20504;-47
2022/03/14 05:52:40;;;;;;;40.20;17.75;;;;;;;-5.93;92.66;96514.22;5112067;27;20394;-47
2022/03/14 05:55:08;;;;;;;40.58;22.50;;;;;;;-5.81;91.69;96512.72;5112577;27;20043;-46
2022/03/14 05:57:35;;;;;;;25.13;12.70;;;;;;;-5.74;91.05;96508.06;5111881;27;20046;-46
2022/03/14 06:00:04;;;;;;;22.25;11.05;;;;;;;-5.58;90.84;96514.72;5114871;27;20416;-46
2022/03/14 06:02:45;;;;;;;27.17;11.77;;;;;;;-5.38;90.25;96525.44;5109177;27;20050;-46
2022/03/14 06:05:12;;;;;;;25.48;12.57;;;;;;;-5.27;89.74;96528.16;5111607;27;20050;-49
2022/03/14 06:07:40;;;;;;;37.97;16.77;;;;;;;-5.13;89.19;96529.03;5108858;27;20048;-46
2022/03/14 06:10:07;;;;;;;30.65;14.70;;;;;;;-5.00;88.54;96529.94;5108928;27;20421;-49
2022/03/14 06:12:34;;;;;;;28.52;12.73;;;;;;;-4.97;87.50;96524.66;5111962;27;20049;-49
2022/03/14 06:15:02;;;;;;;39.80;14.88;;;;;;;-4.74;87.19;96535.16;5106557;27;20044;-50
2022/03/14 06:17:31;;;;;;;35.15;18.52;;;;;;;-4.67;86.01;96541.50;5114473;27;20508;-47
2022/03/14 06:19:57;;;;;;;38.95;16.80;;;;;;;-4.56;85.79;96544.19;5106428;27;20048;-46
2022/03/14 06:22:24;;;;;;;38.53;17.77;;;;;;;-4.38;83.51;96551.59;5110279;27;20040;-46
2022/03/14 06:24:54;;;;;;;50.38;22.02;;;;;;;-4.31;82.22;96547.75;5093017;27;20048;-49
2022/03/14 06:27:22;;;;;;;45.42;20.90;;;;;;;-4.23;81.82;96545.53;5110265;27;20047;-47
2022/03/14 06:29:52;;;;;;;41.17;17.50;;;;;;;-4.11;81.18;96547.28;5111072;27;20048;-46
2022/03/14 06:32:20;;;;;;;27.52;10.88;;;;;;;-3.94;80.42;96555.59;5113659;27;20042;-47
2022/03/14 06:34:47;;;;;;;19.90;9.20;;;;;;;-3.83;79.00;96558.25;5108691;27;20049;-46
2022/03/14 06:37:16;;;;;;;22.63;9.90;;;;;;;-3.78;78.27;96550.31;5109909;27;20051;-46
2022/03/14 06:39:43;;;;;;;24.88;10.77;;;;;;;-3.74;77.89;96562.75;5111759;27;20058;-46
2022/03/14 06:42:10;;;;;;;21.35;10.55;;;;;;;-3.67;78.37;96568.25;5109041;27;20067;-47
2022/03/14 06:44:38;;;;;;;23.42;11.43;;;;;;;-3.53;79.36;96567.34;5109448;27;20047;-46
2022/03/14 06:47:08;;;;;;;23.83;11.43;;;;;;;-3.54;79.93;96568.28;5113548;27;20050;-47
2022/03/14 06:49:39;;;;;;;24.92;12.10;;;;;;;-3.36;80.16;96577.25;5109630;27;20039;-46
2022/03/14 06:52:06;;;;;;;22.05;10.82;;;;;;;-3.21;80.70;96564.41;5114398;27;20062;-49
2022/03/14 06:54:34;;;;;;;16.35;9.20;;;;;;;-3.05;80.11;96577.75;5110685;27;20046;-50
2022/03/14 06:57:01;;;;;;;40.85;14.73;;;;;;;-2.98;80.28;96576.41;5113665;27;20068;-46
2022/03/14 06:59:28;;;;;;;32.38;14.98;;;;;;;-2.93;80.62;96564.16;5108175;27;20046;-49
2022/03/14 07:01:54;;;;;;;37.08;18.95;;;;;;;-2.83;80.52;96573.72;5108466;27;20456;-47
2022/03/14 07:04:21;;;;;;;31.42;15.02;;;;;;;-2.70;80.47;96565.13;5109993;27;20050;-51
2022/03/14 07:06:48;;;;;;;31.67;15.68;;;;;;;-2.64;80.29;96563.91;5104467;27;20070;-47
2022/03/14 07:09:15;;;;;;;42.20;15.10;;;;;;;-2.55;80.43;96563.25;5099230;27;20412;-47
2022/03/14 07:11:42;;;;;;;38.75;16.60;;;;;;;-2.30;80.02;96571.75;5107300;27;20055;-47
2022/03/14 07:14:09;;;;;;;53.22;17.75;;;;;;;-2.19;80.65;96582.00;5102964;27;20566;-47
2022/03/14 07:16:36;;;;;;;43.60;12.95;;;;;;;-2.07;79.76;96582.06;5106837;27;20485;-47
2022/03/14 07:19:03;;;;;;;33.25;16.27;;;;;;;-1.95;80.32;96581.19;5106998;27;20048;-47
2022/03/14 07:21:29;;;;;;;30.77;16.73;;;;;;;-1.83;79.81;96587.97;5109650;27;20046;-47
2022/03/14 07:23:57;;;;;;;31.90;15.25;;;;;;;-1.97;80.55;96576.19;5105700;27;20039;-47
2022/03/14 07:26:24;;;;;;;32.90;17.15;;;;;;;-1.82;80.62;96579.41;5104798;27;20100;-46
2022/03/14 07:28:50;;;;;;;30.40;14.98;;;;;;;-1.60;81.10;96593.16;5102327;27;20040;-48
2022/03/14 07:31:20;;;;;;;33.55;16.05;;;;;;;-1.44;79.03;96591.09;5104371;27;20047;-48
2022/03/14 07:33:48;;;;;;;36.92;15.30;;;;;;;-1.25;77.82;96594.84;5109775;27;20055;-50
2022/03/14 07:36:15;;;;;;;32.13;12.65;;;;;;;-1.10;74.91;96593.69;5119102;27;20484;-47
2022/03/14 07:38:42;;;;;;;35.55;16.05;;;;;;;-1.07;74.07;96602.91;5113607;27;20054;-48
2022/03/14 07:41:10;;;;;;;21.52;11.20;;;;;;;-1.00;72.62;96604.88;5109368;27;20489;-47
2022/03/14 07:43:38;;;;;;;23.77;13.18;;;;;;;-0.96;71.75;96601.13;5108870;27;20130;-47
2022/03/14 07:46:05;;;;;;;31.98;15.18;;;;;;;-0.90;69.38;96604.16;5106799;27;20444;-46
2022/03/14 07:48:32;;;;;;;31.63;13.00;;;;;;;-0.73;68.86;96606.28;5108718;27;20081;-46
2022/03/14 07:50:59;;;;;;;25.92;12.35;;;;;;;-0.59;67.78;96602.66;5108155;27;20035;-47
2022/03/14 07:53:26;;;;;;;28.30;13.52;;;;;;;-0.50;68.13;96596.84;5108828;27;20047;-48
2022/03/14 07:55:53;;;;;;;36.90;15.63;;;;;;;-0.25;69.02;96606.00;5108515;27;20057;-49
2022/03/14 07:58:19;;;;;;;28.58;12.45;;;;;;;0.03;66.55;96598.69;5102825;27;20051;-47
2022/03/14 08:00:46;;;;;;;24.85;10.88;;;;;;;0.19;63.94;96599.09;5113154;27;20048;-47
2022/03/14 08:03:15;;;;;;;26.48;11.25;;;;;;;0.28;60.97;96599.28;5107853;27;20036;-47
2022/03/14 08:05:45;;;;;;;23.23;10.95;;;;;;;0.13;59.35;96594.47;5111126;27;20527;-49
2022/03/14 08:08:13;;;;;;;28.67;11.05;;;;;;;0.24;60.13;96597.91;5111413;27;20089;-48
2022/03/14 08:10:41;;;;;;;24.95;10.82;;;;;;;0.27;58.86;96584.84;5110462;27;20051;-49
2022/03/14 08:13:08;;;;;;;26.38;13.07;;;;;;;0.38;57.66;96592.50;5092581;28;20051;-49
2022/03/14 08:15:38;;;;;;;20.75;10.05;;;;;;;0.46;57.58;96590.09;5115107;27;20043;-51
2022/03/14 08:18:09;;;;;;;23.17;10.73;;;;;;;0.76;56.21;96591.13;5107350;27;20039;-47
2022/03/14 08:20:37;;;;;;;20.20;9.13;;;;;;;0.98;55.52;96599.59;5112101;27;20035;-46
2022/03/14 08:23:04;;;;;;;29.10;11.23;;;;;;;1.17;54.13;96604.84;5111321;27;20508;-47
2022/03/14 08:25:34;;;;;;;26.10;10.15;;;;;;;1.42;55.84;96597.63;5110699;27;20039;-47
2022/03/14 08:28:02;;;;;;;34.05;10.48;;;;;;;1.67;53.35;96592.00;5097259;27;20055;-47
2022/03/14 08:30:28;;;;;;;20.42;9.20;;;;;;;1.89;52.40;96590.13;5102402;27;20039;-47
2022/03/14 08:32:57;;;;;;;21.35;9.13;;;;;;;2.17;51.24;96600.59;5101059;27;20055;-47
2022/03/14 08:35:25;;;;;;;17.73;9.45;;;;;;;2.24;49.56;96599.13;5103443;27;20046;-50
2022/03/14 08:37:53;;;;;;;20.92;8.98;;;;;;;2.31;49.23;96595.06;5084898;27;20105;-47
2022/03/14 08:40:23;;;;;;;21.83;9.50;;;;;;;2.52;50.34;96596.66;5105259;27;20701;-46
2022/03/14 08:42:51;;;;;;;20.45;9.65;;;;;;;2.61;50.10;96582.97;5106763;27;20031;-47
2022/03/14 08:45:19;;;;;;;32.25;10.07;;;;;;;2.66;51.04;96593.66;5095941;27;20043;-48
2022/03/14 08:47:47;;;;;;;26.33;12.55;;;;;;;2.71;48.35;96601.78;5105116;27;20047;-48
2022/03/14 08:50:14;;;;;;;21.05;8.00;;;;;;;2.70;48.04;96597.56;5107385;27;20056;-47
2022/03/14 08:52:43;;;;;;;24.50;9.68;;;;;;;2.67;46.89;96585.00;5101829;27;20059;-47
2022/03/14 08:55:10;;;;;;;18.98;8.00;;;;;;;2.99;49.08;96594.13;5110673;27;20050;-49
2022/03/14 08:57:39;;;;;;;31.73;13.23;;;;;;;3.37;50.46;96587.22;5103255;27;20072;-48
2022/03/14 09:00:07;;;;;;;15.98;8.50;;;;;;;3.70;46.99;96592.75;5101524;27;20053;-47
2022/03/14 09:02:35;;;;;;;14.48;6.32;;;;;;;3.68;44.86;96595.47;5101314;27;20052;-47
2022/03/14 09:05:03;;;;;;;22.10;9.35;;;;;;;3.77;45.64;96583.50;5108963;27;20051;-47
2022/03/14 09:07:31;;;;;;;24.73;8.23;;;;;;;3.94;45.91;96587.88;5107852;28;20043;-47
2022/03/14 09:10:07;;;;;;;17.23;8.45;;;;;;;3.93;45.58;96588.81;5114815;27;20535;-48
2022/03/14 09:12:34;;;;;;;15.82;8.23;;;;;;;3.96;44.28;96593.69;5105557;28;20039;-49
2022/03/14 09:15:02;;;;;;;16.70;6.88;;;;;;;4.13;44.39;96588.69;5105054;28;20530;-48
2022/03/14 09:17:30;;;;;;;15.68;7.47;;;;;;;4.16;44.04;96584.03;5105848;28;20057;-48
2022/03/14 09:19:58;;;;;;;17.15;8.55;;;;;;;4.33;42.77;96579.81;5106830;28;20043;-48
2022/03/14 09:22:24;;;;;;;12.52;6.22;;;;;;;4.40;42.14;96586.00;5108543;28;20113;-52
2022/03/14 09:24:53;;;;;;;14.60;8.25;;;;;;;4.39;41.44;96576.66;5105357;27;20051;-47
2022/03/14 09:27:21;;;;;;;16.10;7.28;;;;;;;4.65;42.28;96578.47;5114840;27;20039;-47
2022/03/14 09:29:48;;;;;;;12.32;6.95;;;;;;;5.00;42.59;96581.09;5111476;27;20057;-49
2022/03/14 09:32:15;;;;;;;19.30;8.10;;;;;;;5.20;42.13;96584.25;5112774;27;20430;-48
2022/03/14 09:34:42;;;;;;;17.75;6.93;;;;;;;5.33;40.61;96571.72;5113100;27;20051;-50
2022/03/14 09:37:09;;;;;;;15.55;7.28;;;;;;;4.69;41.66;96572.03;5116020;27;20043;-48
2022/03/14 09:39:36;;;;;;;17.27;8.05;;;;;;;5.11;41.47;96570.50;5111515;27;20031;-47
2022/03/14 09:42:04;;;;;;;15.07;6.50;;;;;;;5.33;41.46;96571.72;5115381;27;20055;-47
2022/03/14 09:44:31;;;;;;;13.68;5.85;;;;;;;5.57;40.03;96583.16;5113217;27;20048;-49
2022/03/14 09:47:01;;;;;;;8.57;4.40;;;;;;;5.63;38.86;96564.41;5113462;27;20755;-48
2022/03/14 09:49:30;;;;;;;4.72;2.35;;;;;;;5.91;37.87;96564.97;5108775;27;20042;-47
2022/03/14 09:51:58;;;;;;;15.15;6.63;;;;;;;5.77;38.06;96568.19;5110505;27;20104;-47
2022/03/14 09:54:25;;;;;;;8.27;4.53;;;;;;;5.88;37.76;96576.44;5111661;27;20515;-47
2022/03/14 09:56:59;;;;;;;9.40;5.25;;;;;;;5.59;37.01;96560.53;5109958;27;20051;-51
2022/03/14 09:59:26;;;;;;;9.30;4.88;;;;;;;5.79;36.84;96567.03;5116155;27;20138;-47
2022/03/14 10:01:53;;;;;;;14.77;7.95;;;;;;;6.18;39.16;96569.09;5105491;27;20083;-47
2022/03/14 10:04:20;;;;;;;12.82;6.55;;;;;;;6.59;37.23;96574.28;5114705;27;20545;-50
2022/03/14 10:06:49;;;;;;;9.88;4.63;;;;;;;7.00;36.63;96570.81;5114504;27;20441;-49
2022/03/14 10:09:16;;;;;;;10.60;6.72;;;;;;;7.27;36.04;96561.81;5114485;27;20036;-48
2022/03/14 10:11:43;;;;;;;12.10;5.53;;;;;;;7.60;35.14;96566.91;5115031;27;20062;-49
2022/03/14 10:14:17;;;;;;;14.95;6.20;;;;;;;6.97;35.28;96569.38;5114776;27;20447;-47
2022/03/14 10:16:44;;;;;;;11.32;5.38;;;;;;;7.14;35.06;96558.97;5113696;27;20096;-47
2022/03/14 10:19:20;;;;;;;5.25;2.38;;;;;;;6.98;33.83;96563.19;5097012;27;20079;-49
2022/03/14 10:21:51;;;;;;;6.35;2.97;;;;;;;6.74;36.28;96555.50;5109527;27;20034;-47
2022/03/14 10:24:22;;;;;;;10.90;4.95;;;;;;;6.93;35.01;96555.09;5108971;27;20043;-47
2022/03/14 10:26:50;;;;;;;17.40;5.45;;;;;;;7.37;35.48;96557.25;5109193;27;20040;-50
2022/03/14 10:29:18;;;;;;;12.10;7.50;;;;;;;7.96;36.87;96551.63;5110979;27;20513;-50
2022/03/14 10:31:56;;;;;;;13.50;7.03;;;;;;;8.37;35.11;96555.69;5108604;27;20044;-48
2022/03/14 10:34:23;;;;;;;13.93;6.90;;;;;;;8.76;36.28;96552.16;5110021;27;20044;-50
2022/03/14 10:36:57;;;;;;;13.73;7.03;;;;;;;9.14;34.71;96565.88;5110461;27;20040;-47
2022/03/14 10:39:30;;;;;;;12.02;5.25;;;;;;;9.40;33.26;96558.63;5111502;27;20047;-48
2022/03/14 10:42:12;;;;;;;21.45;9.50;;;;;;;8.94;32.59;96565.63;5109895;27;20044;-48
2022/03/14 10:44:48;;;;;;;10.73;5.60;;;;;;;8.61;31.81;96558.13;5110616;27;20032;-47
2022/03/14 10:47:15;;;;;;;9.50;4.95;;;;;;;8.59;31.97;96561.91;5106468;27;20051;-47
2022/03/14 10:49:43;;;;;;;10.57;5.88;;;;;;;8.74;33.11;96548.94;5108650;27;20054;-47
2022/03/14 10:52:17;;;;;;;10.05;4.85;;;;;;;8.64;32.09;96558.75;5110027;27;20054;-48
2022/03/14 10:54:44;;;;;;;7.80;5.07;;;;;;;8.16;32.76;96548.56;5116432;27;20035;-47
2022/03/14 10:57:46;;;;;;;10.20;5.28;;;;;;;7.91;32.42;96547.94;5109261;27;20047;-48
2022/03/14 11:00:13;;;;;;;10.38;5.20;;;;;;;7.72;32.78;96549.94;5112890;27;20051;-47
2022/03/14 11:02:40;;;;;;;12.95;6.93;;;;;;;7.92;33.96;96544.34;5116014;27;20065;-48
2022/03/14 11:05:09;;;;;;;11.68;6.30;;;;;;;8.16;32.89;96540.78;5108559;27;20093;-47
2022/03/14 11:07:36;;;;;;;12.77;6.75;;;;;;;8.50;33.85;96542.16;5108594;27;20044;-47
2022/03/14 11:10:07;;;;;;;8.40;4.70;;;;;;;8.76;31.82;96541.75;5112371;27;20495;-48
2022/03/14 11:12:34;;;;;;;11.07;5.35;;;;;;;9.23;32.02;96538.00;5108006;27;20052;-47
2022/03/14 11:15:06;;;;;;;12.70;6.38;;;;;;;9.26;30.91;96537.66;5108964;27;20113;-47
2022/03/14 11:17:35;;;;;;;8.65;5.40;;;;;;;8.37;32.32;96532.31;5109109;27;20058;-49
2022/03/14 11:20:22;;;;;;;9.85;5.50;;;;;;;9.29;32.68;96537.31;5103571;27;20135;-47
2022/03/14 11:22:50;;;;;;;8.93;4.57;;;;;;;9.89;31.78;96527.59;5111384;27;20070;-48
2022/03/14 11:25:18;;;;;;;8.27;4.93;;;;;;;10.44;30.90;96529.72;5114227;27;20046;-51
2022/03/14 11:27:46;;;;;;;7.35;4.30;;;;;;;10.57;29.06;96534.22;5106578;27;20528;-50
2022/03/14 11:30:13;;;;;;;8.57;4.45;;;;;;;10.86;29.59;96523.63;5091370;28;20155;-48